sim
Sign-in with your pilot id or email,
or register
Callsign
Passwort

Schedule Details

Flight Number: EWG80
Departure: Cologne Bonn Airport (EDDK) at 06:00
Arrival: Munich Airport (EDDM) at 07:10
Route: Eurowings Passenger Schedule. Enter filed route here before submitting Pirep.

Weather Information
Getting current METAR information for EDDK 280750Z 15006KT 9999 BKN037 12/09 Q1009 NOSIG
Getting current METAR information for EDDM 280750Z VRB02KT 9999 -RA FEW005 BKN045 07/06 Q1010 NOSIG

Schedule Frequency

Route Map